createdAt,value
2018-06-12T02:42:51.310Z,15.30
2018-06-12T02:54:50.142Z,15.30
2018-06-12T02:57:55.035Z,15.30
2018-06-12T03:01:04.983Z,15.30
2018-06-12T03:04:15.040Z,15.30
2018-06-12T03:07:24.801Z,15.30
2018-06-12T03:10:29.810Z,15.30
2018-06-12T03:13:41.575Z,15.20
2018-06-12T03:16:50.291Z,15.20
2018-06-12T03:20:00.942Z,15.20
2018-06-12T03:23:07.967Z,15.20
2018-06-12T03:26:14.855Z,15.20
2018-06-12T03:29:22.815Z,15.20
2018-06-12T03:32:30.754Z,15.20
2018-06-12T03:35:35.659Z,15.20
2018-06-12T03:38:47.326Z,15.20
2018-06-12T03:41:53.528Z,15.20
2018-06-12T03:44:59.904Z,15.40
2018-06-12T03:48:17.319Z,15.40
2018-06-12T03:51:26.324Z,15.50
2018-06-12T03:54:36.485Z,15.50
2018-06-12T04:03:41.872Z,15.40
2018-06-12T04:08:21.095Z,15.60
2018-06-12T04:16:06.471Z,15.60
2018-06-12T04:19:24.075Z,15.50
2018-06-12T04:22:32.891Z,15.60
2018-06-12T04:25:39.772Z,15.70
2018-06-12T04:28:53.651Z,15.50
2018-06-12T04:32:06.025Z,15.30
2018-06-12T04:35:19.883Z,15.20
2018-06-12T05:05:31.530Z,15.00
2018-06-12T05:16:12.243Z,15.10
2018-06-12T05:21:10.812Z,15.10
2018-06-12T05:24:19.013Z,15.10
2018-06-12T05:27:24.123Z,15.00
2018-06-12T05:30:31.369Z,15.00
2018-06-12T05:33:39.448Z,14.90
2018-06-12T05:36:45.648Z,15.20
2018-06-12T05:39:54.036Z,15.40
2018-06-12T05:43:15.592Z,15.20
2018-06-12T05:46:21.250Z,15.40
2018-06-12T05:49:27.290Z,15.40
2018-06-12T05:52:34.464Z,15.20
2018-06-12T05:55:43.627Z,15.30
2018-06-12T05:58:50.361Z,15.20
2018-06-12T06:01:57.484Z,15.10
2018-06-12T06:05:05.359Z,15.20
2018-06-12T06:08:28.891Z,15.20
2018-06-12T06:11:34.575Z,15.30
2018-06-12T06:14:40.756Z,15.40
2018-06-12T06:17:49.427Z,15.30
2018-06-12T06:20:55.747Z,15.30
2018-06-12T06:24:01.038Z,15.40
2018-06-12T06:27:08.257Z,15.70
2018-06-12T06:30:19.069Z,15.80
2018-06-12T06:33:24.627Z,16.10
2018-06-12T06:36:30.610Z,16.10
2018-06-12T06:39:38.472Z,16.50
2018-06-12T06:42:43.442Z,16.60
2018-06-12T06:45:49.718Z,16.60
2018-06-12T06:49:01.771Z,16.60
2018-06-12T06:52:09.660Z,16.40
2018-06-12T06:55:30.706Z,16.80
2018-06-12T07:03:58.028Z,17.30
2018-06-12T07:07:24.448Z,17.30
2018-06-12T07:29:16.564Z,17.00
2018-06-12T07:32:22.410Z,17.30
2018-06-12T07:36:38.678Z,17.60
2018-06-12T07:43:04.380Z,17.40
2018-06-12T07:46:11.987Z,17.10
2018-06-12T07:49:20.897Z,17.50
2018-06-12T07:52:41.641Z,17.80
2018-06-12T07:56:23.402Z,18.20
2018-06-12T08:06:05.634Z,18.90
2018-06-12T08:09:10.861Z,18.40
2018-06-12T08:12:15.886Z,18.10
2018-06-12T08:15:20.514Z,18.40
2018-06-12T08:18:26.116Z,19.30
2018-06-12T08:21:31.570Z,21.10
2018-06-12T08:24:40.231Z,20.60
2018-06-12T08:31:15.959Z,20.00
2018-06-12T08:34:29.496Z,20.00
2018-06-12T08:37:35.131Z,20.20
2018-06-12T08:40:39.509Z,19.90
2018-06-12T08:43:44.097Z,20.00
2018-06-12T08:46:48.671Z,20.30
2018-06-12T08:49:53.531Z,21.10
2018-06-12T08:52:59.182Z,21.30
2018-06-12T08:56:03.743Z,21.80
2018-06-12T08:59:10.316Z,22.00
2018-06-12T09:02:14.847Z,21.60
2018-06-12T09:05:19.406Z,20.30
2018-06-12T09:08:24.865Z,19.80
2018-06-12T09:11:38.639Z,19.20
2018-06-12T09:14:44.554Z,19.10
2018-06-12T09:17:51.398Z,19.10
2018-06-12T09:21:01.509Z,19.60
2018-06-12T09:24:07.786Z,20.00
2018-06-12T09:27:13.042Z,20.00
2018-06-12T09:33:24.204Z,20.20
2018-06-12T09:36:35.316Z,20.90
2018-06-12T09:39:41.162Z,20.90
2018-06-12T09:42:48.065Z,21.70
2018-06-12T09:45:57.673Z,23.10
2018-06-12T09:49:04.142Z,23.70
2018-06-12T09:52:09.620Z,24.40
2018-06-12T09:55:14.849Z,23.90
2018-06-12T09:58:19.539Z,23.90
2018-06-12T10:01:25.179Z,23.30
2018-06-12T10:04:31.059Z,22.90
2018-06-12T10:07:36.458Z,22.80
2018-06-12T10:10:44.815Z,22.30
2018-06-12T10:13:50.366Z,22.40
2018-06-12T10:16:56.032Z,21.70
2018-06-12T10:20:03.239Z,22.00
2018-06-12T10:23:08.224Z,21.90
2018-06-12T10:26:13.181Z,22.40
2018-06-12T10:29:18.125Z,22.60
2018-06-12T10:32:22.979Z,22.80
2018-06-12T10:35:28.351Z,22.20
2018-06-12T10:38:34.038Z,21.00
2018-06-12T10:41:38.729Z,20.90
2018-06-12T10:44:43.362Z,20.70
2018-06-12T10:47:48.301Z,21.20
2018-06-12T10:50:53.121Z,21.20
2018-06-12T10:53:58.188Z,21.00
2018-06-12T10:57:02.869Z,21.70
2018-06-12T11:00:07.746Z,22.40
2018-06-12T11:03:15.090Z,22.60
2018-06-12T11:06:19.766Z,22.70
2018-06-12T11:09:24.405Z,22.70
2018-06-12T11:12:28.804Z,22.60
2018-06-12T11:15:33.441Z,22.70
2018-06-12T11:18:37.954Z,22.20
2018-06-12T11:21:42.632Z,21.70
2018-06-12T11:24:47.153Z,21.70
2018-06-12T11:27:51.603Z,21.20
2018-06-12T11:30:56.197Z,21.00
2018-06-12T11:34:00.680Z,20.70
2018-06-12T11:37:54.376Z,21.10
2018-06-12T11:41:14.537Z,21.10
2018-06-12T11:44:28.109Z,21.20
2018-06-12T11:48:30.277Z,21.50
2018-06-12T12:00:09.463Z,20.90
2018-06-12T12:03:24.011Z,20.80
2018-06-12T12:06:32.043Z,20.60
2018-06-12T12:09:42.005Z,20.60
2018-06-12T12:12:52.941Z,20.70
2018-06-12T12:16:06.471Z,20.70
2018-06-12T12:19:19.046Z,20.80
2018-06-12T12:22:25.358Z,20.80
2018-06-12T12:25:32.367Z,20.80
2018-06-12T12:28:43.592Z,21.00
2018-06-12T12:31:51.332Z,21.20
2018-06-12T12:35:04.426Z,21.60
2018-06-12T12:38:13.312Z,21.50
2018-06-12T12:41:17.603Z,21.60
2018-06-12T12:44:22.757Z,21.80
2018-06-12T12:47:27.683Z,21.90
2018-06-12T12:50:32.874Z,21.70
2018-06-12T12:53:37.504Z,21.50
2018-06-12T12:56:42.116Z,21.30
2018-06-12T12:59:51.754Z,21.30
2018-06-12T13:02:56.427Z,21.40
2018-06-12T13:06:01.024Z,21.30
2018-06-12T13:09:08.188Z,21.10
2018-06-12T13:12:23.142Z,21.10
2018-06-12T13:15:27.756Z,21.30
2018-06-12T13:18:32.605Z,21.10
2018-06-12T13:21:37.455Z,21.30
2018-06-12T13:24:42.014Z,21.30
2018-06-12T13:27:46.359Z,20.80
2018-06-12T13:30:51.673Z,20.80
2018-06-12T13:33:56.127Z,21.00
2018-06-12T13:37:02.378Z,21.00
2018-06-12T13:40:06.680Z,20.50
2018-06-12T13:43:11.018Z,20.50
2018-06-12T13:46:16.350Z,20.50
2018-06-12T13:49:21.593Z,20.70
2018-06-12T13:52:26.124Z,21.20
2018-06-12T13:55:31.867Z,21.20
2018-06-12T13:58:37.382Z,20.80
2018-06-12T14:01:42.819Z,20.50
2018-06-12T14:04:48.043Z,20.50
2018-06-12T14:07:53.895Z,20.80
2018-06-12T14:10:59.692Z,20.80
2018-06-12T14:14:04.752Z,20.80
2018-06-12T14:17:13.687Z,20.70
2018-06-12T14:20:18.136Z,20.50
2018-06-12T14:25:09.604Z,20.50
2018-06-12T14:28:15.735Z,20.50
2018-06-12T14:31:24.038Z,20.50
2018-06-12T14:34:33.540Z,20.40
2018-06-12T14:37:40.069Z,20.00
2018-06-12T14:40:49.348Z,20.00
2018-06-12T14:44:03.010Z,20.30
2018-06-12T14:47:10.636Z,20.40
2018-06-12T14:50:20.180Z,20.50
2018-06-12T14:53:25.732Z,20.30
2018-06-12T14:56:32.220Z,20.20
2018-06-12T14:59:40.348Z,20.10
2018-06-12T15:03:05.766Z,20.00
2018-06-12T15:06:11.774Z,19.90
2018-06-12T15:09:20.115Z,19.70
2018-06-12T15:12:43.689Z,19.70
2018-06-12T15:16:26.038Z,19.70
2018-06-12T15:19:49.558Z,19.60
2018-06-12T15:22:55.160Z,19.40
2018-06-12T15:26:04.158Z,19.30
2018-06-12T15:29:09.287Z,19.40
2018-06-12T15:32:14.827Z,19.70
2018-06-12T15:35:19.654Z,19.60
2018-06-12T15:38:24.800Z,19.60
2018-06-12T15:41:30.392Z,19.70
2018-06-12T15:44:35.627Z,19.60
2018-06-12T15:47:40.948Z,19.20
2018-06-12T15:57:45.204Z,19.30
2018-06-12T16:00:53.770Z,19.40
2018-06-12T16:04:01.847Z,19.00
2018-06-12T16:07:09.853Z,19.20
2018-06-12T16:10:14.924Z,19.50
2018-06-12T16:13:20.153Z,19.60
2018-06-12T16:16:28.069Z,19.70
2018-06-12T16:19:33.597Z,19.60
2018-06-12T16:22:39.195Z,19.70
2018-06-12T16:33:04.716Z,19.60
2018-06-12T16:39:29.545Z,19.70
2018-06-12T16:42:36.081Z,19.60
2018-06-12T16:49:00.699Z,19.30
2018-06-12T16:52:05.807Z,19.30
2018-06-12T16:55:14.054Z,19.10
2018-06-12T16:58:19.570Z,19.10
2018-06-12T17:01:34.596Z,18.90
2018-06-12T17:07:54.664Z,18.40
2018-06-12T17:11:00.126Z,18.20
2018-06-12T17:14:07.815Z,18.00
2018-06-12T17:17:16.250Z,18.10
2018-06-12T17:20:21.802Z,18.40
2018-06-12T17:23:26.871Z,18.40
2018-06-12T17:26:33.589Z,18.30
2018-06-12T17:29:39.998Z,18.10
2018-06-12T17:32:47.454Z,18.10
2018-06-12T17:35:52.681Z,17.90
2018-06-12T17:39:01.805Z,17.90
2018-06-12T17:42:06.989Z,17.90
2018-06-12T17:45:11.740Z,18.00
2018-06-12T17:48:25.591Z,17.80
2018-06-12T17:51:41.188Z,17.90
2018-06-12T17:57:53.674Z,18.10
2018-06-12T18:01:10.011Z,17.90
2018-06-12T18:04:17.196Z,17.80
2018-06-12T18:07:24.856Z,17.60
2018-06-12T18:10:30.102Z,17.60
2018-06-12T18:13:44.875Z,17.60
2018-06-12T18:16:52.779Z,17.50
2018-06-12T18:20:05.496Z,17.60
2018-06-12T18:27:26.271Z,17.60
2018-06-12T18:30:47.916Z,17.50
2018-06-12T18:33:52.863Z,17.30
2018-06-12T18:38:27.579Z,17.30
2018-06-12T18:41:36.718Z,17.40
2018-06-12T18:48:21.967Z,17.40
2018-06-12T18:51:27.780Z,17.30
2018-06-12T18:54:34.299Z,17.30
2018-06-12T18:57:39.865Z,17.20
2018-06-12T19:00:44.715Z,17.00
2018-06-12T19:03:52.469Z,16.90
2018-06-12T19:07:10.910Z,16.90
2018-06-12T19:10:27.821Z,16.90
2018-06-12T19:13:47.390Z,16.90
2018-06-12T19:16:52.428Z,16.80
2018-06-12T19:20:00.253Z,16.80
2018-06-12T19:23:25.423Z,16.80
2018-06-12T19:26:46.005Z,16.80
2018-06-12T19:29:56.306Z,16.70
2018-06-12T19:33:01.566Z,16.60
2018-06-12T19:39:26.401Z,16.60
2018-06-12T19:42:31.893Z,16.60
2018-06-12T19:45:47.737Z,16.60
2018-06-12T19:49:02.282Z,16.60
2018-06-12T19:52:08.031Z,16.70
2018-06-12T19:55:18.926Z,16.60
2018-06-12T19:58:37.153Z,16.60
2018-06-12T20:01:51.906Z,16.70
2018-06-12T20:05:01.894Z,16.60
2018-06-12T20:15:55.408Z,16.60
2018-06-12T20:22:43.074Z,16.40
2018-06-12T20:25:50.895Z,16.50
2018-06-12T20:29:01.283Z,16.40
2018-06-12T20:32:09.299Z,16.40
2018-06-12T20:35:15.073Z,16.40
2018-06-12T20:38:22.572Z,16.30
2018-06-12T20:43:57.660Z,16.30
2018-06-12T21:03:07.201Z,16.30
2018-06-12T21:06:15.417Z,16.20
2018-06-12T21:09:30.444Z,16.20
2018-06-12T21:12:44.554Z,16.30
2018-06-12T21:19:49.833Z,16.20
2018-06-12T21:23:05.022Z,16.20
2018-06-12T21:26:11.036Z,16.10
2018-06-12T21:29:16.189Z,16.10
2018-06-12T21:36:15.661Z,15.90
2018-06-12T21:39:20.135Z,16.00
2018-06-12T21:42:26.436Z,16.00
2018-06-12T21:45:31.927Z,16.00
2018-06-12T21:48:36.677Z,16.10
2018-06-12T21:51:41.063Z,16.10
2018-06-12T21:54:48.306Z,16.10
2018-06-12T21:57:53.757Z,16.10
2018-06-12T22:00:58.360Z,16.10
2018-06-12T22:04:02.843Z,16.00
2018-06-12T22:07:07.300Z,16.00
2018-06-12T22:10:14.589Z,16.10
2018-06-12T22:13:19.085Z,16.00
2018-06-12T22:16:24.224Z,16.00
2018-06-12T22:19:29.159Z,16.00
2018-06-12T22:22:34.334Z,15.90
2018-06-12T22:25:38.648Z,16.00
2018-06-12T22:28:43.076Z,15.90
2018-06-12T22:31:47.351Z,16.10
2018-06-12T22:34:51.780Z,16.00
2018-06-12T22:37:56.260Z,16.00
2018-06-12T22:41:00.631Z,15.90
2018-06-12T22:44:05.003Z,15.80
2018-06-12T22:47:09.312Z,15.80
2018-06-12T22:50:14.553Z,16.00
2018-06-12T22:53:18.899Z,15.90
2018-06-12T22:56:23.405Z,15.80
2018-06-12T22:59:27.981Z,16.00
2018-06-12T23:02:32.994Z,15.80
2018-06-12T23:05:37.482Z,16.00
2018-06-12T23:08:41.794Z,15.80
2018-06-12T23:11:46.161Z,15.70
2018-06-12T23:14:50.627Z,15.70
2018-06-12T23:17:54.823Z,16.00
2018-06-12T23:21:18.964Z,15.80
2018-06-12T23:24:23.250Z,15.70
2018-06-12T23:27:27.546Z,15.70
2018-06-12T23:30:32.173Z,15.70
2018-06-12T23:33:36.578Z,15.70
2018-06-12T23:36:40.724Z,15.50
2018-06-12T23:39:44.936Z,15.50
2018-06-12T23:42:49.153Z,15.50
2018-06-12T23:45:53.996Z,15.50
2018-06-12T23:48:58.378Z,15.40
2018-06-12T23:52:03.021Z,15.40
2018-06-12T23:55:07.477Z,15.40
2018-06-12T23:58:12.106Z,15.40
